createdAt,value
2018-07-30T00:01:13.466Z,100148.19
2018-07-30T00:03:41.964Z,100145.08
2018-07-30T00:06:10.882Z,100146.63
2018-07-30T00:08:39.372Z,100145.45
2018-07-30T00:11:12.888Z,100147.59
2018-07-30T00:13:41.403Z,100145.45
2018-07-30T00:16:10.742Z,100144.30
2018-07-30T00:18:39.249Z,100144.67
2018-07-30T00:21:12.722Z,100141.39
2018-07-30T00:23:41.144Z,100145.09
2018-07-30T00:26:12.946Z,100141.19
2018-07-30T00:28:41.343Z,100140.58
2018-07-30T00:31:14.870Z,100135.92
2018-07-30T00:33:43.520Z,100139.43
2018-07-30T00:36:12.195Z,100135.89
2018-07-30T00:38:40.737Z,100143.88
2018-07-30T00:41:09.720Z,100146.59
2018-07-30T00:43:38.288Z,100146.98
2018-07-30T00:46:07.058Z,100146.77
2018-07-30T00:48:36.805Z,100146.20
2018-07-30T00:51:05.354Z,100145.00
2018-07-30T00:53:33.901Z,100147.16
2018-07-30T00:56:02.344Z,100147.91
2018-07-30T00:58:31.100Z,100145.98
2018-07-30T01:01:00.420Z,100143.08
2018-07-30T01:03:28.973Z,100144.25
2018-07-30T01:05:57.752Z,100148.52
2018-07-30T01:08:26.925Z,100147.16
2018-07-30T01:10:55.389Z,100144.42
2018-07-30T01:13:24.078Z,100143.06
2018-07-30T01:15:52.629Z,100148.52
2018-07-30T01:18:21.133Z,100140.34
2018-07-30T01:20:49.933Z,100146.39
2018-07-30T01:23:18.589Z,100142.11
2018-07-30T01:25:47.103Z,100145.42
2018-07-30T01:28:15.789Z,100145.61
2018-07-30T01:30:44.394Z,100145.20
2018-07-30T01:33:12.971Z,100145.98
2018-07-30T01:35:41.480Z,100155.52
2018-07-30T01:38:09.911Z,100153.56
2018-07-30T01:40:38.510Z,100153.95
2018-07-30T01:43:07.006Z,100149.86
2018-07-30T01:45:35.542Z,100156.26
2018-07-30T01:48:04.157Z,100151.80
2018-07-30T01:50:32.702Z,100157.22
2018-07-30T01:53:01.412Z,100150.41
2018-07-30T01:55:31.354Z,100152.13
2018-07-30T01:57:59.791Z,100148.63
2018-07-30T02:00:28.381Z,100154.84
2018-07-30T02:02:57.228Z,100158.92
2018-07-30T02:05:27.026Z,100157.16
2018-07-30T02:07:55.661Z,100153.84
2018-07-30T02:10:24.337Z,100145.47
2018-07-30T02:12:52.860Z,100146.84
2018-07-30T02:15:21.296Z,100145.09
2018-07-30T02:17:50.065Z,100137.69
2018-07-30T02:20:18.564Z,100148.56
2018-07-30T02:22:47.292Z,100149.75
2018-07-30T02:25:15.816Z,100153.63
2018-07-30T02:27:44.530Z,100151.86
2018-07-30T02:30:12.984Z,100149.32
2018-07-30T02:32:41.932Z,100147.75
2018-07-30T02:35:10.974Z,100150.87
2018-07-30T02:37:39.863Z,100147.39
2018-07-30T02:40:08.486Z,100147.98
2018-07-30T02:42:37.022Z,100151.86
2018-07-30T02:45:06.243Z,100153.59
2018-07-30T02:47:34.730Z,100154.57
2018-07-30T02:50:03.285Z,100158.63
2018-07-30T02:52:32.463Z,100158.20
2018-07-30T02:55:00.788Z,100166.37
2018-07-30T02:57:29.329Z,100163.44
2018-07-30T02:59:58.135Z,100167.11
2018-07-30T03:02:26.945Z,100174.09
2018-07-30T03:04:55.935Z,100175.80
2018-07-30T03:07:24.500Z,100182.55
2018-07-30T03:09:53.404Z,100189.87
2018-07-30T03:12:22.096Z,100191.03
2018-07-30T03:14:50.578Z,100190.64
2018-07-30T03:17:19.697Z,100193.72
2018-07-30T03:19:49.258Z,100183.39
2018-07-30T03:22:18.398Z,100192.53
2018-07-30T03:24:47.322Z,100191.14
2018-07-30T03:27:15.978Z,100190.73
2018-07-30T03:29:46.011Z,100188.21
2018-07-30T03:32:17.191Z,100188.21
2018-07-30T03:34:46.317Z,100189.92
2018-07-30T03:37:14.880Z,100185.25
2018-07-30T03:39:44.909Z,100185.59
2018-07-30T03:42:13.639Z,100180.72
2018-07-30T03:44:42.313Z,100179.36
2018-07-30T03:47:10.885Z,100178.00
2018-07-30T03:49:39.357Z,100179.53
2018-07-30T03:52:08.646Z,100180.72
2018-07-30T03:54:37.565Z,100174.69
2018-07-30T03:57:06.650Z,100185.95
2018-07-30T03:59:36.977Z,100185.32
2018-07-30T04:02:05.484Z,100185.32
2018-07-30T04:04:34.543Z,100189.98
2018-07-30T04:07:03.056Z,100182.00
2018-07-30T04:09:31.583Z,100185.66
2018-07-30T04:12:00.086Z,100187.83
2018-07-30T04:14:28.673Z,100191.11
2018-07-30T04:16:57.240Z,100189.39
2018-07-30T04:19:26.031Z,100195.01
2018-07-30T04:22:04.117Z,100200.23
2018-07-30T04:24:32.654Z,100193.23
2018-07-30T04:27:01.206Z,100199.08
2018-07-30T04:29:31.069Z,100202.61
2018-07-30T04:31:59.610Z,100193.09
2018-07-30T04:34:28.066Z,100206.09
2018-07-30T04:36:56.548Z,100204.70
2018-07-30T04:39:25.120Z,100206.27
2018-07-30T04:44:47.327Z,100198.62
2018-07-30T04:47:19.078Z,100200.58
2018-07-30T04:49:47.926Z,100199.91
2018-07-30T04:52:16.458Z,100195.72
2018-07-30T04:54:45.240Z,100195.34
2018-07-30T04:57:14.280Z,100201.22
2018-07-30T04:59:48.472Z,100200.84
2018-07-30T05:02:17.558Z,100203.22
2018-07-30T05:04:48.114Z,100200.11
2018-07-30T05:07:16.752Z,100198.64
2018-07-30T05:09:50.542Z,100199.80
2018-07-30T05:12:20.220Z,100206.03
2018-07-30T05:14:49.032Z,100207.34
2018-07-30T05:17:17.608Z,100205.56
2018-07-30T05:19:46.123Z,100207.27
2018-07-30T05:22:14.585Z,100209.25
2018-07-30T05:24:43.052Z,100211.05
2018-07-30T05:27:11.654Z,100215.72
2018-07-30T05:29:40.340Z,100216.48
2018-07-30T05:32:09.775Z,100222.69
2018-07-30T05:34:38.406Z,100217.67
2018-07-30T05:37:07.144Z,100219.80
2018-07-30T05:39:35.953Z,100223.73
2018-07-30T05:42:04.435Z,100223.32
2018-07-30T05:44:33.181Z,100225.69
2018-07-30T05:47:01.720Z,100231.38
2018-07-30T05:49:30.161Z,100235.67
2018-07-30T05:51:58.814Z,100234.95
2018-07-30T05:54:27.353Z,100236.94
2018-07-30T05:56:55.876Z,100234.44
2018-07-30T05:59:24.307Z,100239.15
2018-07-30T06:01:53.004Z,100237.83
2018-07-30T06:04:21.552Z,100239.99
2018-07-30T06:06:50.127Z,100240.97
2018-07-30T06:09:18.830Z,100239.44
2018-07-30T06:11:47.493Z,100239.83
2018-07-30T06:14:16.988Z,100235.95
2018-07-30T06:16:45.558Z,100239.30
2018-07-30T06:19:13.984Z,100246.48
2018-07-30T06:21:42.735Z,100245.94
2018-07-30T06:24:11.270Z,100250.05
2018-07-30T06:26:40.109Z,100242.86
2018-07-30T06:29:08.616Z,100247.16
2018-07-30T06:31:37.681Z,100252.21
2018-07-30T06:34:06.658Z,100248.16
2018-07-30T06:36:35.600Z,100253.05
2018-07-30T06:39:07.553Z,100247.84
2018-07-30T06:41:41.338Z,100252.34
2018-07-30T06:44:11.445Z,100255.28
2018-07-30T06:46:40.165Z,100249.87
2018-07-30T06:49:10.407Z,100256.73
2018-07-30T06:51:41.079Z,100259.07
2018-07-30T06:54:10.456Z,100259.62
2018-07-30T06:56:40.580Z,100266.64
2018-07-30T06:59:13.772Z,100263.95
2018-07-30T07:01:43.438Z,100266.91
2018-07-30T07:04:11.980Z,100269.08
2018-07-30T07:06:41.084Z,100266.35
2018-07-30T07:09:10.790Z,100264.81
2018-07-30T07:11:39.855Z,100262.12
2018-07-30T07:14:09.082Z,100261.17
2018-07-30T07:16:38.034Z,100260.22
2018-07-30T07:19:06.569Z,100258.13
2018-07-30T07:21:35.502Z,100260.11
2018-07-30T07:24:05.673Z,100258.03
2018-07-30T07:26:34.977Z,100256.30
2018-07-30T07:29:04.060Z,100258.87
2018-07-30T07:31:35.995Z,100259.44
2018-07-30T07:34:05.561Z,100254.41
2018-07-30T07:36:34.113Z,100264.56
2018-07-30T07:39:02.775Z,100259.92
2018-07-30T07:41:31.383Z,100258.17
2018-07-30T07:43:59.876Z,100260.94
2018-07-30T07:46:28.803Z,100257.65
2018-07-30T07:48:57.314Z,100258.07
2018-07-30T07:51:35.375Z,100264.54
2018-07-30T07:54:04.814Z,100264.16
2018-07-30T07:56:33.524Z,100264.55
2018-07-30T07:59:04.372Z,100266.30
2018-07-30T08:04:32.151Z,100262.81
2018-07-30T08:07:01.977Z,100259.90
2018-07-30T08:09:30.920Z,100260.09
2018-07-30T08:12:04.744Z,100260.73
2018-07-30T08:14:33.918Z,100256.03
2018-07-30T08:17:03.589Z,100257.01
2018-07-30T08:19:33.221Z,100258.57
2018-07-30T08:22:02.043Z,100254.48
2018-07-30T08:24:30.548Z,100260.51
2018-07-30T08:26:59.105Z,100258.55
2018-07-30T08:29:28.099Z,100252.89
2018-07-30T08:31:57.214Z,100254.26
2018-07-30T08:34:26.158Z,100253.45
2018-07-30T08:36:54.580Z,100254.83
2018-07-30T08:39:23.478Z,100254.63
2018-07-30T08:41:56.106Z,100249.97
2018-07-30T08:44:24.744Z,100254.83
2018-07-30T08:46:53.305Z,100244.47
2018-07-30T08:49:21.811Z,100252.26
2018-07-30T08:51:50.728Z,100254.81
2018-07-30T08:54:19.564Z,100250.48
2018-07-30T08:56:48.073Z,100254.41
2018-07-30T08:59:16.917Z,100260.84
2018-07-30T09:01:45.440Z,100252.23
2018-07-30T09:04:13.939Z,100256.29
2018-07-30T09:06:42.499Z,100254.31
2018-07-30T09:09:11.489Z,100247.83
2018-07-30T09:11:40.301Z,100257.59
2018-07-30T09:14:09.316Z,100258.94
2018-07-30T09:16:37.861Z,100261.45
2018-07-30T09:19:06.993Z,100258.30
2018-07-30T09:21:35.651Z,100258.81
2018-07-30T09:24:04.513Z,100259.91
2018-07-30T09:26:32.925Z,100255.76
2018-07-30T09:29:01.463Z,100255.49
2018-07-30T09:31:30.221Z,100254.19
2018-07-30T09:34:06.851Z,100261.14
2018-07-30T09:36:44.112Z,100253.84
2018-07-30T09:39:13.171Z,100258.67
2018-07-30T09:41:42.162Z,100256.48
2018-07-30T09:44:12.381Z,100254.09
2018-07-30T09:46:41.039Z,100256.56
2018-07-30T09:49:09.928Z,100258.59
2018-07-30T09:51:38.849Z,100254.83
2018-07-30T09:54:07.953Z,100252.48
2018-07-30T09:56:38.268Z,100256.71
2018-07-30T09:59:07.073Z,100249.72
2018-07-30T10:01:36.196Z,100249.38
2018-07-30T10:04:19.411Z,100248.78
2018-07-30T10:06:47.904Z,100242.91
2018-07-30T10:09:16.322Z,100251.70
2018-07-30T10:11:44.752Z,100245.00
2018-07-30T10:14:13.242Z,100242.58
2018-07-30T10:16:41.661Z,100247.13
2018-07-30T10:19:10.140Z,100248.58
2018-07-30T10:21:38.972Z,100249.01
2018-07-30T10:24:07.764Z,100248.59
2018-07-30T10:26:36.205Z,100245.17
2018-07-30T10:29:04.657Z,100245.55
2018-07-30T10:31:33.281Z,100246.76
2018-07-30T10:34:01.948Z,100242.86
2018-07-30T10:36:30.430Z,100235.25
2018-07-30T10:38:59.231Z,100239.69
2018-07-30T10:41:27.755Z,100241.55
2018-07-30T10:43:56.273Z,100236.89
2018-07-30T10:46:24.736Z,100246.62
2018-07-30T10:48:53.245Z,100242.19
2018-07-30T10:51:21.785Z,100241.77
2018-07-30T10:53:51.512Z,100242.91
2018-07-30T10:56:22.009Z,100239.91
2018-07-30T10:58:51.340Z,100237.53
2018-07-30T11:01:19.799Z,100235.75
2018-07-30T11:03:48.584Z,100232.04
2018-07-30T11:06:18.328Z,100225.75
2018-07-30T11:08:47.307Z,100226.89
2018-07-30T11:11:15.757Z,100230.02
2018-07-30T11:13:44.221Z,100227.55
2018-07-30T11:16:12.791Z,100227.88
2018-07-30T11:18:41.696Z,100223.61
2018-07-30T11:21:10.386Z,100222.75
2018-07-30T11:23:38.785Z,100218.83
2018-07-30T11:26:07.501Z,100223.07
2018-07-30T11:28:35.985Z,100223.56
2018-07-30T11:31:04.455Z,100221.62
2018-07-30T11:33:33.049Z,100224.37
2018-07-30T11:36:01.597Z,100211.73
2018-07-30T11:38:30.140Z,100212.84
2018-07-30T11:40:58.624Z,100222.06
2018-07-30T11:43:27.094Z,100211.83
2018-07-30T11:45:55.563Z,100212.00
2018-07-30T11:48:24.213Z,100213.75
2018-07-30T11:50:52.619Z,100210.48
2018-07-30T11:53:21.069Z,100212.63
2018-07-30T11:55:49.485Z,100214.11
2018-07-30T11:58:18.017Z,100207.22
2018-07-30T12:00:46.746Z,100204.56
2018-07-30T12:03:15.184Z,100197.74
2018-07-30T12:05:43.723Z,100203.34
2018-07-30T12:08:12.078Z,100198.14
2018-07-30T12:10:40.568Z,100191.01
2018-07-30T12:13:09.075Z,100197.03
2018-07-30T12:15:37.467Z,100195.42
2018-07-30T12:18:06.086Z,100190.17
2018-07-30T12:20:34.590Z,100187.83
2018-07-30T12:23:03.004Z,100194.97
2018-07-30T12:25:31.424Z,100193.56
2018-07-30T12:27:59.906Z,100188.55
2018-07-30T12:30:28.546Z,100192.66
2018-07-30T12:32:56.854Z,100191.88
2018-07-30T12:35:25.229Z,100182.36
2018-07-30T12:37:53.600Z,100183.20
2018-07-30T12:40:22.044Z,100185.09
2018-07-30T12:42:50.472Z,100185.11
2018-07-30T12:45:23.372Z,100188.89
2018-07-30T12:47:51.810Z,100188.64
2018-07-30T12:50:20.251Z,100182.51
2018-07-30T12:52:48.724Z,100180.05
2018-07-30T12:55:17.154Z,100178.80
2018-07-30T12:57:45.585Z,100180.19
2018-07-30T13:00:14.032Z,100176.22
2018-07-30T13:02:42.482Z,100183.47
2018-07-30T13:05:10.958Z,100172.06
2018-07-30T13:07:39.431Z,100170.36
2018-07-30T13:10:08.905Z,100161.88
2018-07-30T13:12:37.445Z,100159.24
2018-07-30T13:15:05.849Z,100165.87
2018-07-30T13:17:34.419Z,100149.84
2018-07-30T13:20:02.921Z,100153.98
2018-07-30T13:22:31.347Z,100148.74
2018-07-30T13:24:59.794Z,100153.02
2018-07-30T13:27:28.307Z,100143.92
2018-07-30T13:29:56.840Z,100143.29
2018-07-30T13:32:25.281Z,100139.13
2018-07-30T13:34:53.788Z,100137.30
2018-07-30T13:37:22.203Z,100137.90
2018-07-30T13:39:50.659Z,100132.37
2018-07-30T13:42:19.002Z,100143.93
2018-07-30T13:44:47.430Z,100136.22
2018-07-30T13:47:15.816Z,100133.42
2018-07-30T13:49:44.376Z,100136.34
2018-07-30T13:52:12.961Z,100127.39
2018-07-30T13:54:41.326Z,100128.17
2018-07-30T13:57:09.735Z,100124.80
2018-07-30T13:59:38.149Z,100122.34
2018-07-30T14:02:06.755Z,100118.48
2018-07-30T14:04:35.201Z,100114.97
2018-07-30T14:07:03.653Z,100117.28
2018-07-30T14:09:32.107Z,100119.58
2018-07-30T14:12:00.557Z,100114.86
2018-07-30T14:14:29.045Z,100118.06
2018-07-30T14:16:57.481Z,100117.44
2018-07-30T14:19:25.941Z,100115.75
2018-07-30T14:21:54.363Z,100123.44
2018-07-30T14:24:22.818Z,100115.70
2018-07-30T14:26:51.221Z,100114.92
2018-07-30T14:29:19.663Z,100112.94
2018-07-30T14:31:48.281Z,100106.02
2018-07-30T14:34:16.777Z,100107.21
2018-07-30T14:36:45.236Z,100104.76
2018-07-30T14:39:13.671Z,100106.31
2018-07-30T14:41:42.133Z,100106.91
2018-07-30T14:44:10.573Z,100103.17
2018-07-30T14:46:39.217Z,100100.19
2018-07-30T14:49:07.595Z,100098.94
2018-07-30T14:51:36.258Z,100096.30
2018-07-30T14:54:04.689Z,100095.95
2018-07-30T14:56:33.147Z,100091.80
2018-07-30T14:59:01.636Z,100094.56
2018-07-30T15:01:30.425Z,100094.43
2018-07-30T15:03:58.834Z,100093.20
2018-07-30T15:06:27.233Z,100090.88
2018-07-30T15:08:55.613Z,100094.16
2018-07-30T15:11:24.079Z,100087.91
2018-07-30T15:13:52.513Z,100090.59
2018-07-30T15:16:21.097Z,100083.33
2018-07-30T15:18:49.502Z,100088.04
2018-07-30T15:21:17.937Z,100093.63
2018-07-30T15:23:46.337Z,100089.14
2018-07-30T15:26:14.787Z,100087.63
2018-07-30T15:28:43.240Z,100085.98
2018-07-30T15:31:11.795Z,100080.88
2018-07-30T15:33:40.342Z,100075.71
2018-07-30T15:36:09.053Z,100083.30
2018-07-30T15:38:37.846Z,100081.58
2018-07-30T15:41:06.675Z,100074.09
2018-07-30T15:43:35.586Z,100070.06
2018-07-30T15:46:04.077Z,100071.71
2018-07-30T15:48:38.523Z,100070.44
2018-07-30T15:51:26.434Z,100071.53
2018-07-30T15:53:55.101Z,100066.80
2018-07-30T15:56:23.580Z,100071.53
2018-07-30T15:58:52.219Z,100071.99
2018-07-30T16:01:20.850Z,100072.44
2018-07-30T16:03:49.922Z,100074.89
2018-07-30T16:06:18.780Z,100072.98
2018-07-30T16:08:47.571Z,100070.92
2018-07-30T16:11:16.165Z,100068.93
2018-07-30T16:13:44.826Z,100070.84
2018-07-30T16:16:13.358Z,100071.95
2018-07-30T16:18:41.891Z,100071.23
2018-07-30T16:21:10.468Z,100068.48
2018-07-30T16:23:38.845Z,100071.23
2018-07-30T16:26:07.410Z,100068.75
2018-07-30T16:28:35.824Z,100067.37
2018-07-30T16:31:09.381Z,100067.95
2018-07-30T16:33:37.762Z,100071.16
2018-07-30T16:36:06.319Z,100064.97
2018-07-30T16:38:34.958Z,100064.53
2018-07-30T16:41:03.449Z,100072.80
2018-07-30T16:43:31.833Z,100073.24
2018-07-30T16:46:00.296Z,100070.58
2018-07-30T16:48:28.678Z,100076.32
2018-07-30T16:50:57.624Z,100078.75
2018-07-30T16:53:26.216Z,100076.09
2018-07-30T16:55:54.706Z,100074.80
2018-07-30T16:58:23.266Z,100074.45
2018-07-30T17:00:51.808Z,100078.84
2018-07-30T17:03:20.318Z,100074.83
2018-07-30T17:05:48.984Z,100076.62
2018-07-30T17:08:17.804Z,100072.93
2018-07-30T17:10:46.335Z,100074.83
2018-07-30T17:13:14.746Z,100068.97
2018-07-30T17:15:44.326Z,100073.55
2018-07-30T17:18:13.420Z,100079.98
2018-07-30T17:21:04.665Z,100075.77
2018-07-30T17:23:33.160Z,100070.38
2018-07-30T17:26:01.668Z,100074.66
2018-07-30T17:28:30.280Z,100075.71
2018-07-30T17:30:59.014Z,100085.53
2018-07-30T17:33:27.580Z,100088.55
2018-07-30T17:35:56.043Z,100083.63
2018-07-30T17:38:24.602Z,100087.16
2018-07-30T17:40:53.136Z,100080.86
2018-07-30T17:43:21.570Z,100091.73
2018-07-30T17:45:50.066Z,100087.08
2018-07-30T17:48:18.742Z,100091.55
2018-07-30T17:50:47.325Z,100088.30
2018-07-30T17:53:15.794Z,100091.75
2018-07-30T17:55:44.172Z,100097.08
2018-07-30T17:58:12.656Z,100098.06
2018-07-30T18:00:41.231Z,100098.77
2018-07-30T18:03:09.786Z,100097.06
2018-07-30T18:05:38.654Z,100096.53
2018-07-30T18:08:08.039Z,100095.77
2018-07-30T18:10:39.549Z,100095.59
2018-07-30T18:13:10.420Z,100097.22
2018-07-30T18:15:38.980Z,100094.72
2018-07-30T18:18:07.520Z,100104.62
2018-07-30T18:20:36.298Z,100102.30
2018-07-30T18:23:04.753Z,100107.88
2018-07-30T18:25:33.445Z,100109.52
2018-07-30T18:28:02.139Z,100110.39
2018-07-30T18:30:30.641Z,100113.57
2018-07-30T18:32:59.259Z,100122.67
2018-07-30T18:35:28.103Z,100115.09
2018-07-30T18:37:56.922Z,100118.28
2018-07-30T18:40:25.562Z,100113.62
2018-07-30T18:42:54.165Z,100120.75
2018-07-30T18:45:22.775Z,100120.24
2018-07-30T18:47:52.255Z,100124.01
2018-07-30T18:50:20.900Z,100124.08
2018-07-30T18:52:49.395Z,100128.61
2018-07-30T18:55:17.985Z,100132.05
2018-07-30T18:57:48.851Z,100129.98
2018-07-30T19:00:27.626Z,100133.92
2018-07-30T19:02:56.243Z,100137.79
2018-07-30T19:05:24.796Z,100140.79
2018-07-30T19:07:53.260Z,100144.40
2018-07-30T19:10:22.069Z,100141.54
2018-07-30T19:12:55.530Z,100141.02
2018-07-30T19:15:30.754Z,100156.21
2018-07-30T19:17:59.294Z,100155.52
2018-07-30T19:20:28.086Z,100157.53
2018-07-30T19:23:02.582Z,100159.77
2018-07-30T19:25:32.187Z,100164.97
2018-07-30T19:28:00.750Z,100157.97
2018-07-30T19:30:29.295Z,100164.14
2018-07-30T19:32:58.649Z,100169.45
2018-07-30T19:35:27.512Z,100170.65
2018-07-30T19:37:56.289Z,100170.31
2018-07-30T19:40:24.717Z,100179.75
2018-07-30T19:42:53.413Z,100178.38
2018-07-30T19:45:21.816Z,100179.81
2018-07-30T19:47:50.252Z,100174.31
2018-07-30T19:50:18.837Z,100181.00
2018-07-30T19:52:47.315Z,100175.75
2018-07-30T19:55:15.960Z,100183.65
2018-07-30T19:57:45.311Z,100181.73
2018-07-30T20:00:14.040Z,100189.81
2018-07-30T20:02:42.516Z,100189.27
2018-07-30T20:05:11.066Z,100189.31
2018-07-30T20:07:39.713Z,100195.24
2018-07-30T20:10:08.429Z,100190.54
2018-07-30T20:12:36.955Z,100192.92
2018-07-30T20:15:06.186Z,100194.53
2018-07-30T20:17:34.742Z,100194.19
2018-07-30T20:20:03.255Z,100194.59
2018-07-30T20:22:33.971Z,100201.55
2018-07-30T20:25:02.717Z,100205.81
2018-07-30T20:27:31.638Z,100204.92
2018-07-30T20:30:00.426Z,100206.91
2018-07-30T20:32:29.408Z,100202.23
2018-07-30T20:34:59.120Z,100207.72
2018-07-30T20:37:27.894Z,100202.47
2018-07-30T20:39:57.006Z,100213.84
2018-07-30T20:42:26.323Z,100215.11
2018-07-30T20:44:55.306Z,100215.59
2018-07-30T20:47:24.786Z,100211.52
2018-07-30T20:49:54.443Z,100217.62
2018-07-30T20:52:24.539Z,100218.09
2018-07-30T20:54:56.179Z,100223.92
2018-07-30T20:57:26.052Z,100219.66
2018-07-30T20:59:56.853Z,100224.77
2018-07-30T21:02:26.056Z,100224.58
2018-07-30T21:04:55.103Z,100217.38
2018-07-30T21:07:25.144Z,100224.34
2018-07-30T21:09:55.011Z,100217.47
2018-07-30T21:12:37.171Z,100219.92
2018-07-30T21:15:06.170Z,100212.50
2018-07-30T21:17:35.044Z,100216.84
2018-07-30T21:20:05.075Z,100218.88
2018-07-30T21:22:34.819Z,100217.94
2018-07-30T21:25:03.403Z,100219.35
2018-07-30T21:27:32.716Z,100218.81
2018-07-30T21:30:01.558Z,100220.12
2018-07-30T21:32:30.134Z,100218.60
2018-07-30T21:34:58.738Z,100224.50
2018-07-30T21:37:27.196Z,100223.13
2018-07-30T21:39:55.788Z,100229.66
2018-07-30T21:42:37.980Z,100233.46
2018-07-30T21:45:07.326Z,100232.73
2018-07-30T21:47:35.848Z,100228.66
2018-07-30T21:50:05.016Z,100229.72
2018-07-30T21:52:33.894Z,100229.00
2018-07-30T21:55:02.530Z,100230.59
2018-07-30T21:57:31.019Z,100228.80
2018-07-30T21:59:59.539Z,100225.49
2018-07-30T22:02:28.257Z,100229.23
2018-07-30T22:04:56.953Z,100227.48
2018-07-30T22:07:25.448Z,100235.16
2018-07-30T22:09:53.912Z,100234.78
2018-07-30T22:12:22.393Z,100237.94
2018-07-30T22:14:50.835Z,100238.55
2018-07-30T22:17:19.320Z,100231.31
2018-07-30T22:19:47.737Z,100229.78
2018-07-30T22:22:16.280Z,100228.06
2018-07-30T22:24:44.822Z,100230.61
2018-07-30T22:27:13.875Z,100234.91
2018-07-30T22:29:42.248Z,100242.41
2018-07-30T22:32:11.266Z,100240.49
2018-07-30T22:34:39.992Z,100243.07
2018-07-30T22:37:08.362Z,100237.63
2018-07-30T22:39:36.896Z,100244.31
2018-07-30T22:42:05.382Z,100241.25
2018-07-30T22:44:33.859Z,100246.95
2018-07-30T22:47:02.315Z,100242.10
2018-07-30T22:49:30.956Z,100242.32
2018-07-30T22:51:59.624Z,100249.58
2018-07-30T22:54:28.237Z,100240.05
2018-07-30T22:56:56.856Z,100249.28
2018-07-30T22:59:25.285Z,100245.74
2018-07-30T23:01:53.754Z,100243.03
2018-07-30T23:04:22.309Z,100243.03
2018-07-30T23:06:50.862Z,100245.22
2018-07-30T23:09:19.607Z,100244.45
2018-07-30T23:11:48.384Z,100244.81
2018-07-30T23:14:16.855Z,100244.26
2018-07-30T23:16:45.317Z,100242.34
2018-07-30T23:19:14.056Z,100247.98
2018-07-30T23:21:51.878Z,100246.06
2018-07-30T23:24:20.432Z,100247.67
2018-07-30T23:26:48.871Z,100249.45
2018-07-30T23:29:17.758Z,100252.60
2018-07-30T23:31:46.391Z,100249.45
2018-07-30T23:34:14.933Z,100249.66
2018-07-30T23:36:43.751Z,100251.27
2018-07-30T23:39:13.173Z,100247.79
2018-07-30T23:41:42.002Z,100246.44
2018-07-30T23:44:11.425Z,100244.33
2018-07-30T23:46:40.183Z,100242.77
2018-07-30T23:49:09.472Z,100243.77
2018-07-30T23:51:38.423Z,100242.20
2018-07-30T23:54:08.249Z,100236.58
2018-07-30T23:56:37.654Z,100234.83
2018-07-30T23:59:06.191Z,100234.83
